createdAt,value
2023-02-27T00:01:51.565Z,0.13
2023-02-27T00:04:25.976Z,0.13
2023-02-27T00:07:13.568Z,0.12
2023-02-27T00:09:54.618Z,0.11
2023-02-27T00:12:39.224Z,0.10
2023-02-27T00:15:23.630Z,0.10
2023-02-27T00:18:05.749Z,0.09
2023-02-27T00:20:46.586Z,0.06
2023-02-27T00:23:28.857Z,0.05
2023-02-27T00:26:10.561Z,0.03
2023-02-27T00:28:51.681Z,0.02
2023-02-27T00:31:32.643Z,0.03
2023-02-27T00:34:27.646Z,0.05
2023-02-27T00:37:15.578Z,0.06
2023-02-27T00:39:51.431Z,0.06
2023-02-27T00:42:39.571Z,0.02
2023-02-27T00:45:14.683Z,-0.03
2023-02-27T00:48:02.644Z,-0.07
2023-02-27T00:50:44.516Z,-0.08
2023-02-27T00:53:39.530Z,-0.09
2023-02-27T00:56:27.582Z,-0.05
2023-02-27T00:59:02.716Z,-0.02
2023-02-27T01:01:51.575Z,-0.02
2023-02-27T01:04:26.709Z,-0.03
2023-02-27T01:07:15.535Z,-0.04
2023-02-27T01:09:57.580Z,-0.07
2023-02-27T01:12:45.538Z,-0.10
2023-02-27T01:15:20.751Z,-0.13
2023-02-27T01:18:08.595Z,-0.16
2023-02-27T01:20:43.720Z,-0.19
2023-02-27T01:23:31.661Z,-0.19
2023-02-27T01:26:06.689Z,-0.19
2023-02-27T01:28:54.626Z,-0.19
2023-02-27T01:31:36.660Z,-0.21
2023-02-27T01:34:34.114Z,-0.23
2023-02-27T01:37:22.561Z,-0.25
2023-02-27T01:39:57.661Z,-0.27
2023-02-27T01:42:45.525Z,-0.29
2023-02-27T01:45:40.909Z,-0.28
2023-02-27T01:48:32.536Z,-0.22
2023-02-27T01:51:28.765Z,-0.20
2023-02-27T01:54:17.533Z,-0.19
2023-02-27T01:56:51.869Z,-0.19
2023-02-27T01:59:41.526Z,-0.17
2023-02-27T02:02:30.720Z,-0.16
2023-02-27T02:05:19.529Z,-0.15
2023-02-27T02:07:54.649Z,-0.15
2023-02-27T02:10:42.536Z,-0.16
2023-02-27T02:13:24.541Z,-0.14
2023-02-27T02:16:34.586Z,-0.11
2023-02-27T02:19:35.532Z,-0.09
2023-02-27T02:22:54.545Z,-0.09
2023-02-27T02:26:37.604Z,-0.12
2023-02-27T02:29:54.542Z,-0.13
2023-02-27T02:32:56.649Z,-0.16
2023-02-27T02:36:05.537Z,-0.21
2023-02-27T02:38:58.643Z,-0.22
2023-02-27T02:41:46.535Z,-0.23
2023-02-27T02:44:42.682Z,-0.19
2023-02-27T02:47:29.545Z,-0.15
2023-02-27T02:50:17.584Z,-0.16
2023-02-27T02:52:59.344Z,-0.17
2023-02-27T02:56:03.529Z,-0.20
2023-02-27T02:58:46.359Z,-0.22
2023-02-27T03:01:43.556Z,-0.24
2023-02-27T03:04:45.571Z,-0.27
2023-02-27T03:07:40.576Z,-0.31
2023-02-27T03:10:56.887Z,-0.36
2023-02-27T03:13:48.506Z,-0.40
2023-02-27T03:16:34.756Z,-0.41
2023-02-27T03:19:42.522Z,-0.38
2023-02-27T03:22:22.914Z,-0.36
2023-02-27T03:25:11.493Z,-0.36
2023-02-27T03:27:51.662Z,-0.37
2023-02-27T03:31:10.044Z,-0.40
2023-02-27T03:34:02.526Z,-0.42
2023-02-27T03:37:07.211Z,-0.41
2023-02-27T03:39:59.496Z,-0.40
2023-02-27T03:42:39.883Z,-0.40
2023-02-27T03:45:38.502Z,-0.39
2023-02-27T03:48:13.048Z,-0.39
2023-02-27T03:51:00.589Z,-0.37
2023-02-27T03:53:48.873Z,-0.33
2023-02-27T03:56:42.499Z,-0.28
2023-02-27T03:59:17.360Z,-0.25
2023-02-27T04:02:06.562Z,-0.23
2023-02-27T04:04:40.942Z,-0.22
2023-02-27T04:07:34.500Z,-0.21
2023-02-27T04:10:37.504Z,-0.18
2023-02-27T04:13:35.653Z,-0.15
2023-02-27T04:16:41.506Z,-0.12
2023-02-27T04:19:36.640Z,-0.08
2023-02-27T04:22:20.549Z,-0.08
2023-02-27T04:25:26.492Z,-0.06
2023-02-27T04:28:26.520Z,-0.04
2023-02-27T04:31:13.762Z,-0.04
2023-02-27T04:34:20.551Z,-0.02
2023-02-27T04:37:27.504Z,-0.03
2023-02-27T04:40:19.537Z,-0.07
2023-02-27T04:42:58.669Z,-0.09
2023-02-27T04:45:48.586Z,-0.11
2023-02-27T04:48:29.729Z,-0.12
2023-02-27T04:51:21.505Z,-0.13
2023-02-27T04:54:18.502Z,-0.13
2023-02-27T04:57:16.495Z,-0.13
2023-02-27T05:00:06.507Z,-0.10
2023-02-27T05:02:43.739Z,-0.09
2023-02-27T05:05:33.493Z,-0.08
2023-02-27T05:08:16.842Z,-0.06
2023-02-27T05:11:36.535Z,0.01
2023-02-27T05:14:23.492Z,0.04
2023-02-27T05:17:52.523Z,0.05
2023-02-27T05:20:35.498Z,0.03
2023-02-27T05:23:28.473Z,0.04
2023-02-27T05:26:22.492Z,0.02
2023-02-27T05:29:24.479Z,-0.02
2023-02-27T05:32:21.616Z,-0.03
2023-02-27T05:35:22.494Z,-0.06
2023-02-27T05:38:17.483Z,-0.07
2023-02-27T05:40:56.598Z,-0.04
2023-02-27T05:44:13.606Z,0.01
2023-02-27T05:46:51.621Z,0.04
2023-02-27T05:49:44.562Z,0.04
2023-02-27T05:52:22.616Z,0.04
2023-02-27T05:55:18.830Z,0.04
2023-02-27T05:58:00.693Z,0.06
2023-02-27T06:01:11.470Z,0.05
2023-02-27T06:03:47.663Z,0.07
2023-02-27T06:06:37.486Z,0.08
2023-02-27T06:09:12.597Z,0.12
2023-02-27T06:12:00.485Z,0.17
2023-02-27T06:14:35.605Z,0.21
2023-02-27T06:17:23.476Z,0.23
2023-02-27T06:19:57.608Z,0.25
2023-02-27T06:22:45.464Z,0.23
2023-02-27T06:25:28.490Z,0.22
2023-02-27T06:28:23.472Z,0.22
2023-02-27T06:31:11.501Z,0.23
2023-02-27T06:33:46.696Z,0.27
2023-02-27T06:36:41.494Z,0.32
2023-02-27T06:39:23.142Z,0.36
2023-02-27T06:42:11.529Z,0.35
2023-02-27T06:44:45.946Z,0.34
2023-02-27T06:47:33.473Z,0.33
2023-02-27T06:50:11.365Z,0.36
2023-02-27T06:52:59.515Z,0.43
2023-02-27T06:55:34.139Z,0.49
2023-02-27T06:58:22.473Z,0.57
2023-02-27T07:01:00.166Z,0.68
2023-02-27T07:03:48.474Z,0.85
2023-02-27T07:07:33.347Z,0.99
2023-02-27T07:09:30.647Z,1.16
2023-02-27T07:12:13.457Z,1.26
2023-02-27T07:15:01.517Z,1.38
2023-02-27T07:17:36.032Z,1.54
2023-02-27T07:20:25.477Z,1.64
2023-02-27T07:22:59.866Z,1.78
2023-02-27T07:25:47.462Z,1.90
2023-02-27T07:28:22.058Z,2.02
2023-02-27T07:31:10.546Z,2.12
2023-02-27T07:33:51.444Z,2.21
2023-02-27T07:36:47.618Z,2.34
2023-02-27T07:39:35.447Z,2.47
2023-02-27T07:42:16.864Z,2.59
2023-02-27T07:44:58.463Z,2.68
2023-02-27T07:47:39.619Z,2.71
2023-02-27T07:50:20.456Z,2.73
2023-02-27T07:53:01.654Z,2.79
2023-02-27T07:55:43.550Z,2.80
2023-02-27T07:58:31.488Z,2.83
2023-02-27T08:01:06.009Z,2.80
2023-02-27T08:03:54.451Z,2.77
2023-02-27T08:06:29.354Z,2.77
2023-02-27T08:09:17.470Z,2.79
2023-02-27T08:11:54.450Z,2.86
2023-02-27T08:14:42.559Z,2.98
2023-02-27T08:17:23.459Z,3.05
2023-02-27T08:20:11.511Z,3.13
2023-02-27T08:22:52.848Z,3.16
2023-02-27T08:25:34.601Z,3.25
2023-02-27T08:28:15.451Z,3.37
2023-02-27T08:31:03.568Z,3.46
2023-02-27T08:34:09.536Z,3.44
2023-02-27T08:37:06.446Z,3.42
2023-02-27T08:40:01.451Z,3.46
2023-02-27T08:42:49.465Z,3.56
2023-02-27T08:45:24.595Z,3.61
2023-02-27T08:48:12.586Z,3.64
2023-02-27T08:50:47.804Z,3.62
2023-02-27T08:53:36.472Z,3.66
2023-02-27T08:56:11.700Z,3.74
2023-02-27T08:58:59.524Z,3.81
2023-02-27T09:01:41.521Z,3.76
2023-02-27T09:04:29.436Z,3.73
2023-02-27T09:07:04.618Z,3.77
2023-02-27T09:09:52.441Z,3.70
2023-02-27T09:12:27.590Z,3.65
2023-02-27T09:15:16.441Z,3.63
2023-02-27T09:17:58.440Z,3.53
2023-02-27T09:20:53.528Z,3.38
2023-02-27T09:23:41.444Z,3.25
2023-02-27T09:26:17.278Z,3.12
2023-02-27T09:29:05.449Z,2.86
2023-02-27T09:31:40.632Z,2.66
2023-02-27T09:34:28.445Z,2.55
2023-02-27T09:37:23.428Z,2.40
2023-02-27T09:40:13.446Z,2.28
2023-02-27T09:42:57.437Z,2.18
2023-02-27T09:45:52.500Z,2.10
2023-02-27T09:48:48.562Z,2.05
2023-02-27T09:51:24.769Z,2.06
2023-02-27T09:54:12.446Z,2.05
2023-02-27T09:56:53.613Z,2.01
2023-02-27T09:59:47.450Z,1.93
2023-02-27T10:02:55.728Z,1.86
2023-02-27T10:05:58.929Z,1.86
2023-02-27T10:08:54.427Z,1.95
2023-02-27T10:12:14.028Z,2.00
2023-02-27T10:15:06.481Z,2.06
2023-02-27T10:17:51.447Z,2.10
2023-02-27T10:20:37.643Z,2.13
2023-02-27T10:23:26.421Z,2.29
2023-02-27T10:26:14.436Z,2.58
2023-02-27T10:28:48.858Z,2.89
2023-02-27T10:31:44.457Z,3.22
2023-02-27T10:34:25.435Z,3.56
2023-02-27T10:37:21.475Z,3.81
2023-02-27T10:40:19.470Z,3.98
2023-02-27T10:43:08.488Z,3.96
2023-02-27T10:45:44.103Z,3.87
2023-02-27T10:48:32.501Z,3.71
2023-02-27T10:51:34.474Z,3.64
2023-02-27T10:54:32.427Z,3.48
2023-02-27T10:57:26.444Z,3.29
2023-02-27T11:00:12.707Z,3.15
2023-02-27T11:03:01.694Z,2.97
2023-02-27T11:05:40.254Z,2.80
2023-02-27T11:08:32.525Z,2.66
2023-02-27T11:11:16.580Z,2.58
2023-02-27T11:14:26.517Z,2.49
2023-02-27T11:17:13.929Z,2.44
2023-02-27T11:20:09.411Z,2.41
2023-02-27T11:23:12.555Z,2.39
2023-02-27T11:26:02.411Z,2.35
2023-02-27T11:28:36.964Z,2.35
2023-02-27T11:31:35.587Z,2.40
2023-02-27T11:34:25.408Z,2.40
2023-02-27T11:37:32.425Z,2.30
2023-02-27T11:40:30.430Z,2.20
2023-02-27T11:43:28.431Z,2.14
2023-02-27T11:46:30.211Z,2.13
2023-02-27T11:49:31.437Z,2.07
2023-02-27T11:52:33.559Z,2.01
2023-02-27T11:55:24.420Z,2.00
2023-02-27T11:58:12.549Z,1.98
2023-02-27T12:01:38.221Z,2.02
2023-02-27T12:04:27.949Z,2.12
2023-02-27T12:07:37.465Z,2.21
2023-02-27T12:10:18.837Z,2.25
2023-02-27T12:13:28.400Z,2.25
2023-02-27T12:16:24.647Z,2.22
2023-02-27T12:19:51.613Z,2.26
2023-02-27T12:22:26.548Z,2.27
2023-02-27T12:25:20.623Z,2.27
2023-02-27T12:28:02.621Z,2.35
2023-02-27T12:31:08.572Z,2.45
2023-02-27T12:34:07.552Z,2.57
2023-02-27T12:37:02.428Z,2.74
2023-02-27T12:39:58.402Z,2.87
2023-02-27T12:43:02.612Z,3.00
2023-02-27T12:45:56.051Z,3.15
2023-02-27T12:48:44.406Z,3.30
2023-02-27T12:51:48.386Z,3.45
2023-02-27T12:54:49.401Z,3.59
2023-02-27T12:57:54.424Z,3.64
2023-02-27T13:00:38.412Z,3.56
2023-02-27T13:03:43.458Z,3.36
2023-02-27T13:06:39.417Z,3.31
2023-02-27T13:09:47.403Z,3.30
2023-02-27T13:12:57.424Z,3.20
2023-02-27T13:15:58.409Z,3.06
2023-02-27T13:18:58.384Z,2.93
2023-02-27T13:22:08.611Z,2.82
2023-02-27T13:24:58.604Z,2.70
2023-02-27T13:27:40.062Z,2.63
2023-02-27T13:30:32.499Z,2.57
2023-02-27T13:33:14.614Z,2.55
2023-02-27T13:36:24.723Z,2.56
2023-02-27T13:39:50.414Z,2.60
2023-02-27T13:42:34.549Z,2.58
2023-02-27T13:45:55.542Z,2.53
2023-02-27T13:48:53.929Z,2.51
2023-02-27T13:51:53.400Z,2.50
2023-02-27T13:54:28.553Z,2.51
2023-02-27T13:57:40.373Z,2.49
2023-02-27T14:00:24.222Z,2.47
2023-02-27T14:03:18.548Z,2.46
2023-02-27T14:05:54.505Z,2.45
2023-02-27T14:08:46.391Z,2.39
2023-02-27T14:11:29.123Z,2.35
2023-02-27T14:14:18.449Z,2.31
2023-02-27T14:17:00.378Z,2.29
2023-02-27T14:19:48.522Z,2.25
2023-02-27T14:22:37.381Z,2.21
2023-02-27T14:25:35.392Z,2.15
2023-02-27T14:28:30.469Z,2.11
2023-02-27T14:31:21.403Z,2.08
2023-02-27T14:34:03.389Z,2.06
2023-02-27T14:37:03.568Z,2.01
2023-02-27T14:40:03.126Z,1.95
2023-02-27T14:43:10.581Z,1.88
2023-02-27T14:45:45.638Z,1.82
2023-02-27T14:48:34.388Z,1.76
2023-02-27T14:51:16.393Z,1.68
2023-02-27T14:54:26.593Z,1.58
2023-02-27T14:57:20.401Z,1.52
2023-02-27T14:59:57.522Z,1.45
2023-02-27T15:02:45.376Z,1.39
2023-02-27T15:05:22.530Z,1.35
2023-02-27T15:08:10.376Z,1.33
2023-02-27T15:10:48.604Z,1.33
2023-02-27T15:13:39.382Z,1.32
2023-02-27T15:16:40.494Z,1.30
2023-02-27T15:19:40.388Z,1.28
2023-02-27T15:22:39.930Z,1.28
2023-02-27T15:25:47.536Z,1.31
2023-02-27T15:28:49.371Z,1.33
2023-02-27T15:31:38.450Z,1.35
2023-02-27T15:34:25.382Z,1.33
2023-02-27T15:37:20.389Z,1.30
2023-02-27T15:40:15.380Z,1.26
2023-02-27T15:43:04.392Z,1.21
2023-02-27T15:45:52.376Z,1.17
2023-02-27T15:48:27.094Z,1.15
2023-02-27T15:51:17.382Z,1.13
2023-02-27T15:54:01.361Z,1.12
2023-02-27T15:56:44.563Z,1.12
2023-02-27T15:59:26.358Z,1.11
2023-02-27T16:02:14.391Z,1.10
2023-02-27T16:04:49.430Z,1.08
2023-02-27T16:07:40.381Z,1.03
2023-02-27T16:10:28.398Z,1.00
2023-02-27T16:13:47.368Z,0.99
2023-02-27T16:16:23.311Z,0.96
2023-02-27T16:19:07.364Z,0.95
2023-02-27T16:21:42.491Z,0.96
2023-02-27T16:24:28.465Z,1.01
2023-02-27T16:27:09.496Z,1.06
2023-02-27T16:29:51.388Z,1.10
2023-02-27T16:32:50.569Z,1.07
2023-02-27T16:35:41.627Z,1.08
2023-02-27T16:38:30.508Z,1.05
2023-02-27T16:41:05.603Z,1.00
2023-02-27T16:43:54.355Z,0.97
2023-02-27T16:46:36.527Z,0.97
2023-02-27T16:49:35.378Z,0.98
2023-02-27T16:52:18.488Z,0.97
2023-02-27T16:54:59.382Z,0.96
2023-02-27T16:57:40.543Z,0.96
2023-02-27T17:00:22.637Z,0.96
2023-02-27T17:03:04.803Z,0.93
2023-02-27T17:05:46.393Z,0.92
2023-02-27T17:08:27.514Z,0.92
2023-02-27T17:11:10.373Z,0.92
2023-02-27T17:13:58.386Z,0.90
2023-02-27T17:16:35.623Z,0.86
2023-02-27T17:19:28.348Z,0.83
2023-02-27T17:22:03.442Z,0.82
2023-02-27T17:24:52.346Z,0.77
2023-02-27T17:27:33.369Z,0.75
2023-02-27T17:30:15.560Z,0.77
2023-02-27T17:32:59.745Z,0.79
2023-02-27T17:35:55.444Z,0.81
2023-02-27T17:38:44.369Z,0.79
2023-02-27T17:41:20.499Z,0.77
2023-02-27T17:44:10.362Z,0.74
2023-02-27T17:46:52.300Z,0.74
2023-02-27T17:49:33.377Z,0.73
2023-02-27T17:52:15.488Z,0.75
2023-02-27T17:54:56.596Z,0.72
2023-02-27T17:57:49.346Z,0.68
2023-02-27T18:00:23.992Z,0.66
2023-02-27T18:03:39.655Z,0.64
2023-02-27T18:06:26.596Z,0.61
2023-02-27T18:09:17.785Z,0.61
2023-02-27T18:12:00.597Z,0.59
2023-02-27T18:15:05.813Z,0.63
2023-02-27T18:21:16.416Z,0.70
2023-02-27T18:23:52.312Z,0.73
2023-02-27T18:26:57.517Z,0.74
2023-02-27T18:29:36.935Z,0.73
2023-02-27T18:32:36.411Z,0.70
2023-02-27T18:35:52.738Z,0.69
2023-02-27T18:39:30.165Z,0.68
2023-02-27T18:42:31.235Z,0.69
2023-02-27T18:45:23.373Z,0.67
2023-02-27T18:48:18.384Z,0.65
2023-02-27T18:51:12.416Z,0.63
2023-02-27T18:53:48.553Z,0.62
2023-02-27T18:56:53.853Z,0.58
2023-02-27T18:59:36.187Z,0.56
2023-02-27T19:02:29.451Z,0.56
2023-02-27T19:05:18.362Z,0.55
2023-02-27T19:08:51.915Z,0.55
2023-02-27T19:11:42.464Z,0.55
2023-02-27T19:14:22.654Z,0.58
2023-02-27T19:17:10.554Z,0.61
2023-02-27T19:19:55.267Z,0.62
2023-02-27T19:22:46.611Z,0.65
2023-02-27T19:25:30.380Z,0.66
2023-02-27T19:28:51.662Z,0.70
2023-02-27T19:31:40.690Z,0.74
2023-02-27T19:34:30.927Z,0.75
2023-02-27T19:37:09.054Z,0.72
2023-02-27T19:39:58.357Z,0.72
2023-02-27T19:42:33.635Z,0.71
2023-02-27T19:45:22.656Z,0.70
2023-02-27T19:48:03.789Z,0.67
2023-02-27T19:50:48.984Z,0.68
2023-02-27T19:53:31.850Z,0.70
2023-02-27T19:56:17.033Z,0.73
2023-02-27T19:59:06.686Z,0.75
2023-02-27T20:01:48.316Z,0.75
2023-02-27T20:04:38.998Z,0.79
2023-02-27T20:07:36.626Z,0.81
2023-02-27T20:10:26.332Z,0.82
2023-02-27T20:13:01.522Z,0.82
2023-02-27T20:15:49.471Z,0.86
2023-02-27T20:18:27.728Z,0.87
2023-02-27T20:21:22.348Z,0.86
2023-02-27T20:24:04.700Z,0.86
2023-02-27T20:27:04.532Z,0.91
2023-02-27T20:29:52.354Z,0.96
2023-02-27T20:32:31.474Z,0.96
2023-02-27T20:35:22.416Z,0.92
2023-02-27T20:38:05.329Z,0.93
2023-02-27T20:40:48.024Z,0.91
2023-02-27T20:43:40.823Z,0.89
2023-02-27T20:46:25.315Z,0.85
2023-02-27T20:49:15.331Z,0.81
2023-02-27T20:51:49.783Z,0.80
2023-02-27T20:54:37.468Z,0.80
2023-02-27T20:57:11.737Z,0.78
2023-02-27T21:00:00.323Z,0.78
2023-02-27T21:02:36.084Z,0.78
2023-02-27T21:05:24.378Z,0.76
2023-02-27T21:07:59.937Z,0.74
2023-02-27T21:10:53.321Z,0.72
2023-02-27T21:13:35.321Z,0.69
2023-02-27T21:16:18.175Z,0.70
2023-02-27T21:19:00.321Z,0.70
2023-02-27T21:21:43.026Z,0.72
2023-02-27T21:24:25.506Z,0.76
2023-02-27T21:27:07.493Z,0.73
2023-02-27T21:29:48.319Z,0.72
2023-02-27T21:32:36.322Z,0.71
2023-02-27T21:35:11.388Z,0.73
2023-02-27T21:37:59.311Z,0.72
2023-02-27T21:40:40.592Z,0.71
2023-02-27T21:43:21.989Z,0.70
2023-02-27T21:46:03.407Z,0.68
2023-02-27T21:48:45.808Z,0.68
2023-02-27T21:51:39.239Z,0.69
2023-02-27T21:54:22.770Z,0.69
2023-02-27T21:57:08.303Z,0.70
2023-02-27T21:59:49.685Z,0.69
2023-02-27T22:02:31.396Z,0.67
2023-02-27T22:05:20.308Z,0.65
2023-02-27T22:08:15.310Z,0.64
2023-02-27T22:11:07.365Z,0.62
2023-02-27T22:13:49.336Z,0.60
2023-02-27T22:16:44.346Z,0.59
2023-02-27T22:19:32.298Z,0.61
2023-02-27T22:22:09.101Z,0.62
2023-02-27T22:24:57.292Z,0.65
2023-02-27T22:27:39.298Z,0.64
2023-02-27T22:30:34.297Z,0.63
2023-02-27T22:33:22.323Z,0.65
2023-02-27T22:36:08.319Z,0.67
2023-02-27T22:39:03.277Z,0.72
2023-02-27T22:41:52.304Z,0.76
2023-02-27T22:44:33.783Z,0.75
2023-02-27T22:47:16.308Z,0.74
2023-02-27T22:49:58.785Z,0.71
2023-02-27T22:52:44.317Z,0.70
2023-02-27T22:55:32.478Z,0.69
2023-02-27T22:58:07.698Z,0.69
2023-02-27T23:00:55.311Z,0.68
2023-02-27T23:03:36.343Z,0.69
2023-02-27T23:06:20.437Z,0.67
2023-02-27T23:09:01.405Z,0.66
2023-02-27T23:11:42.400Z,0.65
2023-02-27T23:14:24.530Z,0.61
2023-02-27T23:17:13.916Z,0.59
2023-02-27T23:19:48.824Z,0.60
2023-02-27T23:22:40.294Z,0.58
2023-02-27T23:25:15.060Z,0.54
2023-02-27T23:28:03.916Z,0.56
2023-02-27T23:30:40.194Z,0.56
2023-02-27T23:33:28.299Z,0.53
2023-02-27T23:36:17.482Z,0.48
2023-02-27T23:39:05.303Z,0.44
2023-02-27T23:41:40.563Z,0.41
2023-02-27T23:44:46.415Z,0.39
2023-02-27T23:47:47.461Z,0.38
2023-02-27T23:50:44.446Z,0.39
2023-02-27T23:53:26.294Z,0.40
2023-02-27T23:56:21.292Z,0.40
2023-02-27T23:59:00.456Z,0.41
